createdAt,value
2023-02-06T00:00:19.269Z,68.38
2023-02-06T00:01:23.029Z,67.79
2023-02-06T00:02:29.545Z,67.66
2023-02-06T00:03:32.665Z,68.17
2023-02-06T00:04:35.774Z,68.79
2023-02-06T00:05:38.917Z,68.44
2023-02-06T00:06:42.835Z,68.19
2023-02-06T00:07:45.873Z,68.04
2023-02-06T00:08:49.687Z,68.01
2023-02-06T00:09:52.767Z,68.02
2023-02-06T00:10:55.986Z,68.15
2023-02-06T00:11:59.144Z,68.63
2023-02-06T00:13:02.260Z,68.64
2023-02-06T00:14:05.600Z,69.22
2023-02-06T00:15:09.219Z,68.54
2023-02-06T00:16:33.356Z,68.47
2023-02-06T00:17:37.692Z,68.95
2023-02-06T00:18:40.948Z,68.81
2023-02-06T00:19:44.883Z,68.98
2023-02-06T00:20:47.926Z,68.88
2023-02-06T00:21:50.924Z,68.77
2023-02-06T00:22:53.977Z,68.74
2023-02-06T00:24:00.294Z,69.06
2023-02-06T00:25:03.874Z,69.19
2023-02-06T00:26:08.230Z,69.44
2023-02-06T00:27:11.443Z,69.72
2023-02-06T00:28:14.708Z,69.83
2023-02-06T00:29:17.996Z,69.91
2023-02-06T00:31:28.993Z,70.12
2023-02-06T00:32:32.061Z,70.64
2023-02-06T00:33:35.535Z,70.04
2023-02-06T00:34:38.525Z,70.14
2023-02-06T00:35:41.688Z,70.03
2023-02-06T00:36:44.901Z,70.33
2023-02-06T00:37:48.239Z,70.21
2023-02-06T00:38:51.341Z,70.10
2023-02-06T00:39:54.316Z,69.94
2023-02-06T00:40:57.348Z,70.11
2023-02-06T00:42:00.408Z,70.16
2023-02-06T00:43:03.489Z,69.86
2023-02-06T00:44:06.563Z,70.02
2023-02-06T00:45:10.531Z,69.94
2023-02-06T00:46:13.628Z,69.64
2023-02-06T00:47:16.672Z,69.68
2023-02-06T00:48:20.048Z,70.22
2023-02-06T00:49:23.088Z,70.35
2023-02-06T00:50:26.520Z,70.32
2023-02-06T00:51:30.213Z,70.18
2023-02-06T00:52:33.304Z,70.16
2023-02-06T00:53:36.490Z,70.11
2023-02-06T00:54:39.601Z,70.28
2023-02-06T00:55:42.562Z,69.79
2023-02-06T00:56:46.141Z,69.98
2023-02-06T00:57:49.328Z,69.91
2023-02-06T00:58:52.407Z,70.24
2023-02-06T00:59:55.639Z,70.50
2023-02-06T01:00:58.836Z,70.28
2023-02-06T01:02:02.180Z,69.97
2023-02-06T01:03:05.304Z,69.80
2023-02-06T01:04:08.385Z,69.88
2023-02-06T01:05:11.742Z,70.05
2023-02-06T01:06:14.996Z,69.60
2023-02-06T01:07:18.130Z,69.37
2023-02-06T01:08:21.529Z,69.46
2023-02-06T01:09:24.696Z,69.21
2023-02-06T01:10:27.920Z,69.14
2023-02-06T01:11:31.189Z,69.33
2023-02-06T01:12:36.019Z,69.56
2023-02-06T01:13:39.354Z,69.43
2023-02-06T01:14:42.898Z,69.05
2023-02-06T01:15:46.160Z,69.21
2023-02-06T01:16:49.685Z,69.13
2023-02-06T01:17:53.257Z,69.24
2023-02-06T01:18:56.588Z,69.42
2023-02-06T01:20:00.210Z,69.59
2023-02-06T01:21:08.808Z,69.84
2023-02-06T01:22:11.872Z,69.85
2023-02-06T01:23:15.123Z,69.39
2023-02-06T01:24:18.121Z,69.40
2023-02-06T01:25:21.068Z,68.92
2023-02-06T01:26:27.386Z,68.96
2023-02-06T01:27:30.753Z,69.30
2023-02-06T01:28:40.366Z,69.24
2023-02-06T01:29:43.581Z,69.35
2023-02-06T01:30:46.700Z,69.72
2023-02-06T01:31:49.739Z,69.82
2023-02-06T01:32:52.781Z,69.65
2023-02-06T01:33:58.504Z,69.44
2023-02-06T01:35:01.534Z,70.13
2023-02-06T01:36:04.643Z,70.35
2023-02-06T01:37:07.737Z,70.36
2023-02-06T01:38:10.735Z,69.88
2023-02-06T01:39:13.823Z,70.59
2023-02-06T01:40:21.324Z,71.28
2023-02-06T01:41:24.599Z,71.74
2023-02-06T01:42:31.054Z,71.37
2023-02-06T01:43:36.536Z,70.96
2023-02-06T01:44:40.004Z,70.92
2023-02-06T01:45:45.731Z,70.68
2023-02-06T01:46:54.639Z,70.64
2023-02-06T01:48:02.555Z,70.56
2023-02-06T01:49:09.341Z,70.09
2023-02-06T01:50:12.493Z,70.10
2023-02-06T01:51:23.206Z,70.16
2023-02-06T01:52:31.139Z,69.69
2023-02-06T01:53:39.321Z,69.74
2023-02-06T01:54:46.364Z,69.42
2023-02-06T01:55:51.989Z,69.92
2023-02-06T01:57:00.391Z,70.00
2023-02-06T01:58:05.786Z,69.12
2023-02-06T01:59:09.301Z,69.52
2023-02-06T02:00:12.953Z,69.17
2023-02-06T02:01:16.558Z,68.86
2023-02-06T02:02:20.271Z,68.57
2023-02-06T02:03:23.436Z,68.47
2023-02-06T02:04:28.890Z,68.18
2023-02-06T02:05:33.969Z,68.33
2023-02-06T02:06:37.531Z,68.17
2023-02-06T02:08:04.801Z,67.64
2023-02-06T02:09:08.764Z,67.71
2023-02-06T02:10:11.694Z,66.57
2023-02-06T02:11:24.499Z,66.42
2023-02-06T02:12:27.616Z,66.88
2023-02-06T02:13:32.676Z,66.28
2023-02-06T02:14:37.508Z,65.88
2023-02-06T02:15:55.013Z,65.70
2023-02-06T02:17:15.812Z,66.10
2023-02-06T02:18:43.777Z,66.50
2023-02-06T02:20:01.774Z,66.72
2023-02-06T02:21:47.345Z,66.43
2023-02-06T02:23:44.026Z,65.64
2023-02-06T02:24:52.670Z,65.73
2023-02-06T02:26:40.822Z,65.02
2023-02-06T02:28:05.952Z,65.54
2023-02-06T02:29:24.159Z,65.78
2023-02-06T02:30:30.513Z,66.49
2023-02-06T02:31:42.336Z,67.14
2023-02-06T02:33:03.286Z,67.30
2023-02-06T02:34:24.976Z,66.58
2023-02-06T02:35:30.631Z,66.60
2023-02-06T02:37:01.998Z,66.58
2023-02-06T02:38:27.773Z,67.22
2023-02-06T02:39:42.853Z,67.46
2023-02-06T02:40:58.259Z,67.25
2023-02-06T02:42:10.884Z,67.03
2023-02-06T02:43:42.944Z,66.48
2023-02-06T02:44:55.158Z,66.50
2023-02-06T02:46:21.040Z,66.20
2023-02-06T02:47:31.024Z,66.42
2023-02-06T02:48:44.146Z,66.65
2023-02-06T02:49:48.941Z,67.13
2023-02-06T02:50:54.576Z,67.40
2023-02-06T02:51:59.129Z,67.58
2023-02-06T02:53:04.291Z,67.62
2023-02-06T02:54:08.095Z,67.27
2023-02-06T02:55:23.336Z,67.59
2023-02-06T02:56:27.211Z,67.90
2023-02-06T02:57:32.159Z,68.12
2023-02-06T02:58:36.139Z,68.19
2023-02-06T02:59:46.954Z,68.08
2023-02-06T03:00:57.924Z,68.15
2023-02-06T03:02:26.817Z,67.89
2023-02-06T03:03:32.762Z,67.51
2023-02-06T03:04:46.416Z,67.84
2023-02-06T03:06:04.235Z,68.12
2023-02-06T03:07:35.057Z,68.29
2023-02-06T03:08:56.179Z,68.21
2023-02-06T03:10:23.587Z,67.86
2023-02-06T03:11:27.473Z,67.85
2023-02-06T03:12:55.548Z,68.06
2023-02-06T03:14:08.059Z,68.08
2023-02-06T03:15:38.777Z,68.15
2023-02-06T03:16:52.544Z,67.87
2023-02-06T03:18:20.459Z,67.78
2023-02-06T03:19:35.871Z,67.28
2023-02-06T03:20:44.171Z,67.79
2023-02-06T03:21:49.161Z,67.86
2023-02-06T03:22:54.411Z,67.89
2023-02-06T03:24:02.208Z,68.53
2023-02-06T03:25:11.042Z,68.65
2023-02-06T03:26:17.059Z,68.70
2023-02-06T03:27:23.038Z,68.05
2023-02-06T03:28:31.703Z,67.68
2023-02-06T03:29:38.502Z,68.19
2023-02-06T03:30:44.142Z,68.00
2023-02-06T03:31:58.082Z,68.35
2023-02-06T03:33:07.785Z,68.22
2023-02-06T03:34:22.308Z,68.22
2023-02-06T03:35:31.060Z,67.65
2023-02-06T03:36:34.860Z,67.30
2023-02-06T03:37:39.221Z,66.53
2023-02-06T03:38:42.619Z,65.82
2023-02-06T03:39:45.744Z,65.45
2023-02-06T03:40:50.383Z,65.88
2023-02-06T03:41:56.616Z,66.67
2023-02-06T03:43:04.187Z,66.87
2023-02-06T03:44:11.463Z,66.68
2023-02-06T03:45:25.664Z,66.79
2023-02-06T03:46:30.956Z,66.16
2023-02-06T03:47:37.462Z,66.22
2023-02-06T03:48:44.780Z,66.11
2023-02-06T03:49:50.450Z,67.38
2023-02-06T03:50:57.432Z,67.61
2023-02-06T03:52:08.027Z,67.53
2023-02-06T03:53:13.510Z,67.65
2023-02-06T03:54:21.372Z,67.61
2023-02-06T03:55:25.058Z,67.06
2023-02-06T03:56:47.524Z,67.17
2023-02-06T03:58:06.180Z,67.56
2023-02-06T03:59:11.343Z,68.02
2023-02-06T04:00:14.803Z,67.91
2023-02-06T04:01:19.572Z,68.04
2023-02-06T04:02:24.838Z,67.28
2023-02-06T04:03:28.551Z,67.02
2023-02-06T04:04:37.325Z,67.10
2023-02-06T04:05:41.091Z,67.73
2023-02-06T04:06:44.752Z,68.15
2023-02-06T04:07:48.163Z,68.50
2023-02-06T04:08:52.313Z,68.48
2023-02-06T04:09:55.984Z,67.62
2023-02-06T04:10:59.226Z,66.68
2023-02-06T04:12:02.410Z,66.78
2023-02-06T04:13:05.334Z,66.70
2023-02-06T04:14:08.339Z,66.92
2023-02-06T04:15:11.481Z,66.85
2023-02-06T04:16:14.595Z,66.76
2023-02-06T04:17:31.510Z,66.05
2023-02-06T04:18:41.137Z,65.63
2023-02-06T04:19:44.567Z,65.65
2023-02-06T04:20:47.654Z,65.90
2023-02-06T04:21:50.843Z,66.59
2023-02-06T04:22:54.056Z,66.70
2023-02-06T04:23:56.992Z,65.83
2023-02-06T04:24:59.992Z,64.93
2023-02-06T04:26:03.142Z,64.49
2023-02-06T04:27:07.577Z,64.53
2023-02-06T04:28:10.796Z,64.41
2023-02-06T04:29:13.770Z,63.95
2023-02-06T04:30:18.593Z,64.90
2023-02-06T04:31:24.332Z,64.85
2023-02-06T04:32:27.528Z,67.35
2023-02-06T04:33:30.618Z,67.11
2023-02-06T04:34:35.900Z,66.69
2023-02-06T04:35:39.040Z,66.91
2023-02-06T04:36:42.185Z,66.38
2023-02-06T04:37:45.346Z,66.50
2023-02-06T04:38:48.604Z,67.55
2023-02-06T04:39:51.583Z,67.78
2023-02-06T04:40:54.676Z,67.57
2023-02-06T04:41:57.718Z,66.65
2023-02-06T04:43:01.025Z,67.45
2023-02-06T04:44:04.113Z,67.25
2023-02-06T04:45:08.033Z,66.52
2023-02-06T04:46:11.079Z,66.53
2023-02-06T04:47:14.460Z,66.73
2023-02-06T04:48:17.756Z,66.86
2023-02-06T04:49:21.112Z,67.10
2023-02-06T04:50:24.900Z,67.39
2023-02-06T04:51:27.955Z,67.50
2023-02-06T04:52:30.973Z,67.05
2023-02-06T04:53:34.529Z,67.77
2023-02-06T04:54:37.633Z,67.98
2023-02-06T04:55:40.787Z,68.33
2023-02-06T04:56:45.337Z,68.38
2023-02-06T04:57:48.649Z,68.49
2023-02-06T04:58:52.230Z,68.36
2023-02-06T04:59:56.041Z,68.41
2023-02-06T05:00:59.040Z,68.59
2023-02-06T05:02:02.383Z,67.70
2023-02-06T05:03:05.422Z,67.92
2023-02-06T05:04:08.575Z,68.39
2023-02-06T05:05:11.800Z,68.26
2023-02-06T05:06:15.168Z,68.33
2023-02-06T05:07:18.582Z,68.44
2023-02-06T05:08:21.968Z,68.73
2023-02-06T05:09:24.959Z,68.75
2023-02-06T05:10:28.188Z,68.75
2023-02-06T05:11:31.265Z,68.71
2023-02-06T05:12:34.336Z,68.99
2023-02-06T05:13:37.428Z,69.57
2023-02-06T05:14:40.470Z,69.54
2023-02-06T05:15:43.503Z,69.54
2023-02-06T05:16:47.300Z,69.48
2023-02-06T05:17:50.498Z,69.66
2023-02-06T05:18:56.754Z,69.40
2023-02-06T05:20:00.191Z,69.45
2023-02-06T05:21:06.590Z,69.26
2023-02-06T05:22:09.805Z,69.36
2023-02-06T05:23:12.860Z,69.68
2023-02-06T05:24:16.008Z,69.74
2023-02-06T05:25:19.261Z,69.86
2023-02-06T05:26:22.294Z,70.07
2023-02-06T05:27:25.978Z,69.83
2023-02-06T05:28:33.724Z,69.72
2023-02-06T05:29:37.097Z,69.67
2023-02-06T05:30:40.149Z,69.49
2023-02-06T05:31:43.485Z,69.09
2023-02-06T05:32:46.620Z,68.98
2023-02-06T05:33:53.788Z,69.52
2023-02-06T05:35:00.386Z,69.17
2023-02-06T05:36:08.266Z,69.30
2023-02-06T05:37:11.861Z,69.61
2023-02-06T05:38:17.526Z,69.96
2023-02-06T05:39:20.790Z,69.43
2023-02-06T05:40:23.978Z,69.23
2023-02-06T05:41:27.219Z,69.29
2023-02-06T05:42:30.202Z,68.71
2023-02-06T05:43:34.081Z,67.83
2023-02-06T05:44:37.148Z,68.58
2023-02-06T05:45:40.683Z,67.60
2023-02-06T05:46:44.434Z,67.21
2023-02-06T05:47:47.482Z,67.89
2023-02-06T05:48:52.328Z,68.38
2023-02-06T05:49:55.462Z,68.87
2023-02-06T05:50:58.579Z,69.26
2023-02-06T05:52:01.689Z,69.11
2023-02-06T05:53:04.717Z,69.08
2023-02-06T05:54:07.690Z,69.87
2023-02-06T05:55:10.852Z,70.26
2023-02-06T05:56:13.857Z,69.97
2023-02-06T05:57:16.957Z,69.32
2023-02-06T05:58:22.980Z,68.41
2023-02-06T05:59:25.892Z,68.90
2023-02-06T06:00:28.907Z,69.05
2023-02-06T06:01:31.897Z,68.74
2023-02-06T06:02:34.950Z,68.99
2023-02-06T06:03:38.744Z,69.18
2023-02-06T06:04:41.820Z,68.58
2023-02-06T06:05:45.723Z,67.55
2023-02-06T06:06:49.128Z,68.14
2023-02-06T06:07:52.351Z,67.97
2023-02-06T06:08:55.439Z,68.71
2023-02-06T06:09:58.581Z,69.21
2023-02-06T06:11:03.168Z,69.31
2023-02-06T06:12:06.426Z,69.21
2023-02-06T06:13:09.453Z,69.02
2023-02-06T06:14:12.798Z,69.05
2023-02-06T06:15:16.039Z,68.85
2023-02-06T06:16:19.145Z,68.82
2023-02-06T06:17:22.210Z,68.75
2023-02-06T06:18:25.525Z,68.53
2023-02-06T06:19:28.496Z,68.26
2023-02-06T06:20:31.672Z,67.80
2023-02-06T06:21:34.777Z,68.02
2023-02-06T06:22:37.922Z,68.31
2023-02-06T06:23:41.023Z,68.01
2023-02-06T06:24:44.198Z,68.18
2023-02-06T06:25:48.269Z,67.96
2023-02-06T06:26:51.590Z,68.30
2023-02-06T06:27:54.617Z,68.58
2023-02-06T06:28:58.059Z,69.06
2023-02-06T06:30:01.244Z,68.86
2023-02-06T06:31:07.372Z,68.68
2023-02-06T06:32:10.399Z,68.67
2023-02-06T06:33:15.723Z,68.12
2023-02-06T06:34:18.974Z,67.14
2023-02-06T06:35:22.206Z,67.22
2023-02-06T06:36:25.258Z,67.54
2023-02-06T06:37:28.310Z,67.86
2023-02-06T06:38:31.306Z,68.21
2023-02-06T06:39:34.209Z,68.31
2023-02-06T06:40:37.399Z,68.66
2023-02-06T06:41:40.495Z,68.76
2023-02-06T06:42:43.429Z,68.59
2023-02-06T06:43:46.438Z,68.06
2023-02-06T06:44:49.462Z,67.22
2023-02-06T06:45:52.802Z,67.73
2023-02-06T06:46:55.903Z,68.23
2023-02-06T06:47:58.920Z,67.85
2023-02-06T06:49:01.894Z,67.70
2023-02-06T06:50:06.332Z,67.89
2023-02-06T06:51:09.561Z,67.64
2023-02-06T06:52:24.022Z,67.61
2023-02-06T06:53:27.787Z,67.10
2023-02-06T06:54:30.800Z,67.49
2023-02-06T06:55:34.282Z,67.36
2023-02-06T06:56:37.625Z,67.96
2023-02-06T06:57:40.495Z,68.32
2023-02-06T06:58:45.172Z,67.38
2023-02-06T06:59:48.734Z,67.19
2023-02-06T07:00:54.082Z,67.10
2023-02-06T07:01:57.117Z,67.34
2023-02-06T07:03:00.280Z,66.92
2023-02-06T07:04:03.522Z,66.76
2023-02-06T07:05:07.237Z,68.67
2023-02-06T07:06:11.737Z,68.38
2023-02-06T07:07:14.971Z,69.37
2023-02-06T07:08:18.394Z,69.06
2023-02-06T07:09:21.584Z,69.15
2023-02-06T07:10:24.850Z,69.24
2023-02-06T07:11:27.991Z,68.92
2023-02-06T07:12:30.870Z,68.86
2023-02-06T07:13:33.958Z,67.74
2023-02-06T07:14:37.054Z,67.02
2023-02-06T07:15:41.194Z,66.99
2023-02-06T07:16:47.410Z,67.39
2023-02-06T07:17:50.799Z,67.47
2023-02-06T07:18:53.982Z,67.32
2023-02-06T07:19:56.976Z,67.37
2023-02-06T07:21:00.366Z,67.34
2023-02-06T07:22:03.396Z,67.43
2023-02-06T07:23:07.026Z,66.38
2023-02-06T07:24:10.158Z,66.38
2023-02-06T07:25:13.305Z,66.38
2023-02-06T07:26:16.361Z,66.20
2023-02-06T07:27:19.763Z,65.65
2023-02-06T07:28:22.979Z,65.24
2023-02-06T07:29:26.092Z,65.96
2023-02-06T07:30:29.648Z,66.13
2023-02-06T07:31:32.618Z,66.34
2023-02-06T07:32:38.915Z,66.83
2023-02-06T07:33:42.179Z,66.79
2023-02-06T07:34:45.277Z,65.54
2023-02-06T07:35:48.747Z,66.41
2023-02-06T07:36:52.127Z,66.25
2023-02-06T07:37:57.715Z,65.07
2023-02-06T07:39:03.377Z,64.60
2023-02-06T07:40:07.437Z,64.80
2023-02-06T07:41:12.631Z,64.91
2023-02-06T07:42:16.245Z,65.11
2023-02-06T07:43:19.358Z,64.75
2023-02-06T07:44:22.354Z,64.43
2023-02-06T07:45:26.398Z,64.35
2023-02-06T07:46:29.281Z,62.95
2023-02-06T07:47:32.276Z,61.78
2023-02-06T07:48:36.067Z,61.16
2023-02-06T07:49:39.448Z,61.32
2023-02-06T07:50:42.572Z,61.75
2023-02-06T07:51:46.495Z,61.29
2023-02-06T07:52:49.661Z,60.16
2023-02-06T07:53:52.854Z,60.13
2023-02-06T07:54:55.887Z,60.12
2023-02-06T07:55:59.031Z,59.97
2023-02-06T07:57:02.135Z,60.08
2023-02-06T07:58:05.192Z,59.35
2023-02-06T07:59:08.232Z,58.37
2023-02-06T08:00:12.071Z,58.46
2023-02-06T08:01:15.891Z,57.82
2023-02-06T08:02:18.838Z,58.31
2023-02-06T08:03:22.282Z,57.75
2023-02-06T08:04:25.481Z,57.76
2023-02-06T08:05:28.620Z,56.86
2023-02-06T08:06:31.738Z,56.95
2023-02-06T08:07:35.317Z,56.72
2023-02-06T08:08:38.817Z,56.88
2023-02-06T08:09:42.780Z,57.30
2023-02-06T08:10:47.083Z,57.43
2023-02-06T08:11:50.038Z,55.89
2023-02-06T08:12:53.081Z,55.67
2023-02-06T08:13:56.864Z,55.38
2023-02-06T08:14:59.916Z,53.96
2023-02-06T08:16:11.644Z,52.66
2023-02-06T08:17:14.977Z,52.58
2023-02-06T08:18:18.218Z,52.41
2023-02-06T08:19:21.361Z,53.36
2023-02-06T08:20:24.384Z,52.89
2023-02-06T08:21:28.658Z,51.11
2023-02-06T08:22:32.045Z,50.96
2023-02-06T08:23:35.099Z,50.42
2023-02-06T08:24:38.098Z,49.98
2023-02-06T08:25:41.137Z,50.15
2023-02-06T08:26:44.315Z,49.06
2023-02-06T08:27:47.688Z,49.09
2023-02-06T08:28:52.412Z,48.68
2023-02-06T08:29:57.428Z,48.26
2023-02-06T08:31:00.847Z,48.89
2023-02-06T08:32:03.973Z,47.91
2023-02-06T08:33:07.598Z,47.99
2023-02-06T08:34:13.717Z,47.14
2023-02-06T08:35:16.947Z,47.16
2023-02-06T08:36:21.570Z,47.59
2023-02-06T08:37:24.917Z,47.81
2023-02-06T08:38:28.089Z,46.45
2023-02-06T08:39:31.343Z,46.41
2023-02-06T08:40:34.449Z,46.25
2023-02-06T08:41:42.506Z,45.50
2023-02-06T08:42:50.492Z,45.15
2023-02-06T08:43:56.742Z,44.69
2023-02-06T08:44:59.624Z,45.49
2023-02-06T08:46:02.635Z,46.62
2023-02-06T08:47:10.502Z,45.65
2023-02-06T08:48:17.430Z,44.86
2023-02-06T08:49:22.523Z,45.54
2023-02-06T08:50:25.737Z,44.13
2023-02-06T08:51:29.248Z,44.36
2023-02-06T08:52:32.134Z,44.02
2023-02-06T08:53:35.779Z,45.02
2023-02-06T08:54:39.075Z,45.07
2023-02-06T08:55:42.202Z,44.29
2023-02-06T08:56:46.032Z,43.51
2023-02-06T08:57:49.124Z,42.22
2023-02-06T08:58:54.080Z,42.73
2023-02-06T08:59:57.265Z,44.86
2023-02-06T09:01:09.852Z,44.95
2023-02-06T09:02:13.133Z,43.90
2023-02-06T09:03:16.295Z,43.38
2023-02-06T09:04:19.838Z,44.07
2023-02-06T09:05:23.124Z,44.58
2023-02-06T09:06:27.141Z,43.62
2023-02-06T09:07:31.839Z,44.68
2023-02-06T09:08:34.945Z,43.62
2023-02-06T09:09:38.163Z,45.33
2023-02-06T09:10:41.366Z,45.17
2023-02-06T09:11:44.549Z,45.09
2023-02-06T09:12:47.727Z,44.14
2023-02-06T09:13:52.137Z,43.93
2023-02-06T09:14:55.142Z,44.31
2023-02-06T09:15:58.264Z,43.33
2023-02-06T09:17:01.536Z,44.42
2023-02-06T09:18:04.781Z,43.52
2023-02-06T09:19:08.496Z,43.22
2023-02-06T09:20:11.492Z,43.10
2023-02-06T09:21:15.952Z,43.45
2023-02-06T09:22:19.063Z,41.66
2023-02-06T09:23:22.053Z,40.45
2023-02-06T09:24:25.636Z,40.02
2023-02-06T09:25:31.578Z,40.12
2023-02-06T09:26:44.773Z,41.71
2023-02-06T09:27:57.173Z,41.75
2023-02-06T09:29:03.383Z,41.48
2023-02-06T09:30:06.812Z,41.75
2023-02-06T09:31:11.230Z,43.02
2023-02-06T09:32:14.487Z,41.63
2023-02-06T09:33:17.643Z,42.84
2023-02-06T09:34:20.557Z,42.22
2023-02-06T09:35:23.762Z,40.70
2023-02-06T09:36:27.059Z,39.47
2023-02-06T09:37:30.163Z,40.15
2023-02-06T09:38:35.933Z,41.14
2023-02-06T09:39:38.938Z,40.90
2023-02-06T09:40:42.008Z,39.42
2023-02-06T09:42:00.282Z,40.07
2023-02-06T09:43:04.383Z,39.65
2023-02-06T09:44:07.355Z,40.65
2023-02-06T09:45:23.079Z,41.11
2023-02-06T09:46:31.775Z,40.84
2023-02-06T09:47:38.250Z,40.82
2023-02-06T09:48:43.392Z,41.34
2023-02-06T09:50:06.436Z,41.32
2023-02-06T09:51:40.229Z,42.01
2023-02-06T09:52:57.618Z,40.67
2023-02-06T09:54:15.898Z,41.15
2023-02-06T09:55:43.883Z,41.96
2023-02-06T09:56:59.524Z,41.23
2023-02-06T09:58:41.050Z,41.97
2023-02-06T09:59:52.656Z,42.23
2023-02-06T10:01:17.656Z,40.66
2023-02-06T10:02:48.712Z,39.56
2023-02-06T10:04:15.961Z,40.26
2023-02-06T10:05:33.064Z,39.25
2023-02-06T10:07:00.219Z,39.28
2023-02-06T10:08:27.323Z,38.95
2023-02-06T10:09:45.126Z,36.94
2023-02-06T10:10:52.614Z,37.37
2023-02-06T10:12:13.666Z,36.81
2023-02-06T10:13:51.809Z,36.48
2023-02-06T10:15:03.567Z,36.08
2023-02-06T10:16:37.732Z,37.10
2023-02-06T10:17:54.300Z,35.94
2023-02-06T10:19:03.695Z,35.31
2023-02-06T10:20:16.205Z,36.20
2023-02-06T10:21:25.680Z,35.16
2023-02-06T10:22:49.815Z,35.58
2023-02-06T10:24:42.475Z,34.31
2023-02-06T10:26:08.164Z,33.90
2023-02-06T10:27:14.842Z,33.03
2023-02-06T10:28:21.821Z,33.94
2023-02-06T10:29:28.606Z,34.48
2023-02-06T10:31:13.688Z,35.85
2023-02-06T10:32:35.977Z,32.76
2023-02-06T10:34:00.802Z,31.01
2023-02-06T10:35:14.754Z,31.04
2023-02-06T10:36:56.633Z,30.87
2023-02-06T10:38:32.449Z,32.92
2023-02-06T10:39:57.762Z,31.55
2023-02-06T10:41:03.638Z,32.11
2023-02-06T10:42:23.014Z,32.43
2023-02-06T10:43:40.672Z,33.18
2023-02-06T10:45:01.317Z,31.36
2023-02-06T10:46:37.731Z,31.37
2023-02-06T10:48:05.191Z,32.37
2023-02-06T10:49:42.430Z,33.09
2023-02-06T10:50:55.311Z,32.98
2023-02-06T10:52:02.036Z,33.15
2023-02-06T10:53:13.109Z,32.14
2023-02-06T10:54:22.773Z,33.46
2023-02-06T10:55:37.760Z,33.25
2023-02-06T10:56:46.721Z,33.86
2023-02-06T10:57:57.669Z,33.69
2023-02-06T10:59:07.595Z,33.13
2023-02-06T11:00:39.439Z,32.53
2023-02-06T11:01:44.937Z,32.64
2023-02-06T11:03:06.875Z,32.36
2023-02-06T11:04:33.512Z,31.62
2023-02-06T11:05:37.035Z,32.58
2023-02-06T11:06:42.854Z,33.19
2023-02-06T11:07:50.630Z,32.67
2023-02-06T11:08:53.775Z,31.24
2023-02-06T11:09:57.119Z,29.91
2023-02-06T11:11:27.440Z,31.25
2023-02-06T11:12:39.596Z,31.02
2023-02-06T11:13:42.996Z,31.30
2023-02-06T11:14:46.560Z,32.12
2023-02-06T11:16:09.881Z,31.58
2023-02-06T11:17:15.861Z,30.90
2023-02-06T11:18:24.648Z,29.76
2023-02-06T11:19:35.516Z,28.71
2023-02-06T11:20:42.010Z,29.17
2023-02-06T11:21:51.356Z,28.53
2023-02-06T11:22:54.728Z,30.01
2023-02-06T11:24:13.301Z,29.01
2023-02-06T11:25:25.690Z,30.24
2023-02-06T11:26:28.817Z,31.65
2023-02-06T11:27:35.255Z,31.67
2023-02-06T11:28:50.158Z,30.81
2023-02-06T11:31:07.376Z,30.68
2023-02-06T11:32:28.594Z,30.87
2023-02-06T11:33:54.597Z,29.59
2023-02-06T11:35:01.529Z,29.22
2023-02-06T11:36:06.098Z,30.61
2023-02-06T11:37:36.251Z,29.71
2023-02-06T11:38:54.856Z,29.57
2023-02-06T11:40:19.676Z,30.18
2023-02-06T11:41:22.893Z,30.86
2023-02-06T11:42:26.184Z,31.47
2023-02-06T11:43:32.162Z,32.21
2023-02-06T11:44:39.130Z,30.74
2023-02-06T11:45:42.374Z,31.66
2023-02-06T11:46:45.312Z,30.63
2023-02-06T11:47:48.358Z,31.59
2023-02-06T11:48:55.036Z,30.77
2023-02-06T11:50:22.637Z,31.56
2023-02-06T11:51:27.168Z,32.79
2023-02-06T11:52:33.029Z,31.54
2023-02-06T11:53:37.677Z,31.47
2023-02-06T11:54:40.621Z,32.16
2023-02-06T11:55:45.155Z,32.59
2023-02-06T11:57:00.024Z,32.35
2023-02-06T11:58:14.463Z,32.13
2023-02-06T11:59:21.886Z,31.43
2023-02-06T12:00:25.081Z,30.19
2023-02-06T12:01:28.628Z,30.32
2023-02-06T12:02:35.137Z,31.80
2023-02-06T12:03:55.456Z,31.81
2023-02-06T12:05:13.717Z,30.58
2023-02-06T12:06:38.756Z,29.08
2023-02-06T12:08:02.725Z,28.76
2023-02-06T12:09:12.733Z,30.82
2023-02-06T12:10:21.051Z,31.66
2023-02-06T12:11:33.826Z,31.39
2023-02-06T12:12:42.827Z,30.18
2023-02-06T12:13:52.976Z,30.78
2023-02-06T12:15:02.949Z,30.89
2023-02-06T12:16:15.654Z,30.90
2023-02-06T12:17:40.388Z,29.59
2023-02-06T12:18:48.874Z,29.57
2023-02-06T12:20:16.642Z,31.24
2023-02-06T12:21:27.360Z,31.24
2023-02-06T12:22:35.894Z,30.02
2023-02-06T12:23:44.126Z,28.62
2023-02-06T12:24:50.031Z,30.21
2023-02-06T12:25:58.216Z,29.33
2023-02-06T12:27:17.787Z,28.66
2023-02-06T12:28:39.173Z,28.99
2023-02-06T12:29:51.821Z,29.12
2023-02-06T12:30:58.857Z,29.94
2023-02-06T12:32:15.567Z,29.66
2023-02-06T12:33:25.970Z,30.42
2023-02-06T12:34:42.850Z,29.77
2023-02-06T12:35:50.050Z,30.20
2023-02-06T12:37:14.738Z,29.51
2023-02-06T12:38:32.135Z,31.26
2023-02-06T12:39:35.575Z,29.61
2023-02-06T12:41:10.909Z,29.95
2023-02-06T12:42:52.707Z,30.22
2023-02-06T12:44:16.225Z,28.67
2023-02-06T12:45:49.236Z,28.22
2023-02-06T12:46:59.564Z,29.60
2023-02-06T12:48:26.308Z,28.98
2023-02-06T12:49:35.730Z,29.77
2023-02-06T12:50:48.872Z,29.26
2023-02-06T12:52:06.865Z,29.43
2023-02-06T12:53:24.747Z,28.20
2023-02-06T12:54:53.129Z,27.93
2023-02-06T12:56:09.785Z,30.25
2023-02-06T12:57:22.088Z,29.98
2023-02-06T12:58:33.328Z,31.47
2023-02-06T13:00:22.481Z,29.82
2023-02-06T13:01:49.267Z,31.00
2023-02-06T13:03:05.255Z,31.85
2023-02-06T13:04:23.967Z,32.32
2023-02-06T13:05:34.962Z,32.02
2023-02-06T13:06:48.719Z,30.57
2023-02-06T13:07:55.151Z,29.96
2023-02-06T13:09:07.209Z,30.01
2023-02-06T13:10:21.970Z,31.03
2023-02-06T13:11:29.044Z,33.36
2023-02-06T13:12:34.833Z,32.88
2023-02-06T13:13:41.892Z,32.21
2023-02-06T13:14:52.160Z,32.43
2023-02-06T13:15:57.053Z,32.27
2023-02-06T13:17:10.536Z,33.94
2023-02-06T13:18:37.833Z,32.90
2023-02-06T13:19:40.723Z,35.17
2023-02-06T13:21:17.047Z,34.04
2023-02-06T13:22:23.577Z,33.05
2023-02-06T13:23:26.560Z,32.74
2023-02-06T13:24:29.602Z,34.03
2023-02-06T13:25:36.741Z,34.63
2023-02-06T13:26:51.830Z,36.15
2023-02-06T13:28:11.504Z,36.24
2023-02-06T13:29:32.628Z,34.37
2023-02-06T13:30:36.105Z,35.07
2023-02-06T13:31:39.210Z,36.36
2023-02-06T13:32:46.416Z,37.46
2023-02-06T13:33:56.656Z,36.60
2023-02-06T13:35:14.670Z,35.90
2023-02-06T13:36:39.193Z,35.15
2023-02-06T13:37:48.267Z,37.18
2023-02-06T13:38:57.016Z,35.84
2023-02-06T13:40:30.846Z,35.80
2023-02-06T13:41:37.526Z,35.45
2023-02-06T13:42:53.135Z,34.63
2023-02-06T13:44:01.810Z,33.77
2023-02-06T13:45:06.654Z,34.79
2023-02-06T13:46:14.967Z,35.96
2023-02-06T13:47:42.408Z,35.51
2023-02-06T13:49:12.505Z,36.43
2023-02-06T13:50:33.990Z,35.13
2023-02-06T13:51:46.301Z,34.70
2023-02-06T13:53:19.924Z,34.79
2023-02-06T13:55:00.430Z,35.59
2023-02-06T13:56:21.307Z,37.21
2023-02-06T13:57:24.475Z,35.35
2023-02-06T13:58:49.790Z,34.48
2023-02-06T13:59:52.801Z,34.49
2023-02-06T14:00:57.743Z,35.06
2023-02-06T14:02:22.834Z,35.84
2023-02-06T14:03:34.865Z,35.59
2023-02-06T14:04:44.249Z,37.18
2023-02-06T14:06:08.884Z,37.37
2023-02-06T14:07:32.515Z,37.00
2023-02-06T14:09:03.211Z,37.33
2023-02-06T14:11:04.579Z,37.54
2023-02-06T14:12:44.782Z,36.86
2023-02-06T14:14:15.276Z,36.79
2023-02-06T14:15:20.909Z,35.77
2023-02-06T14:16:35.457Z,35.76
2023-02-06T14:18:17.007Z,35.77
2023-02-06T14:19:29.160Z,36.34
2023-02-06T14:20:50.200Z,36.40
2023-02-06T14:22:10.802Z,38.93
2023-02-06T14:23:31.151Z,36.94
2023-02-06T14:24:44.071Z,36.51
2023-02-06T14:26:14.993Z,36.58
2023-02-06T14:27:30.203Z,36.27
2023-02-06T14:28:48.253Z,36.41
2023-02-06T14:30:08.368Z,36.72
2023-02-06T14:31:20.481Z,36.56
2023-02-06T14:32:36.869Z,36.47
2023-02-06T14:34:16.550Z,36.82
2023-02-06T14:35:47.712Z,37.47
2023-02-06T14:36:50.832Z,38.35
2023-02-06T14:38:18.409Z,38.21
2023-02-06T14:39:41.131Z,38.24
2023-02-06T14:40:49.281Z,37.96
2023-02-06T14:41:54.643Z,38.00
2023-02-06T14:43:02.580Z,38.14
2023-02-06T14:44:19.698Z,39.14
2023-02-06T14:45:40.865Z,40.22
2023-02-06T14:46:45.100Z,41.00
2023-02-06T14:47:48.948Z,40.14
2023-02-06T14:48:57.292Z,40.36